KG6SIB Weather Reports


Display with metric or nautical units.
time (UTC)temp
F
wind
direction
speed
MPH
gust
MPH
rain 1hr
in
rain 24hr
in
rain mn
in
humidity
%
barometer
mb
20221126214628 65 251 4.0 10.0 0.00 0.00 0.00 19 1018.9
20221126214128 65 272 2.0 11.0 0.00 0.00 0.00 19 1018.9
20221126213128 65 267 7.0 11.0 0.00 0.00 0.00 18 1019.1
20221126212629 65 259 4.0 11.0 0.00 0.00 0.00 17 1019.1
20221126212128 65 229 5.0 10.0 0.00 0.00 0.00 17 1019.1
20221126211127 65 261 4.0 14.0 0.00 0.00 0.00 15 1019.4
20221126210627 65 244 7.0 12.0 0.00 0.00 0.00 17 1019.5
20221126210126 65 248 3.0 12.0 0.00 0.00 0.00 18 1019.5
20221126205626 65 252 4.0 12.0 0.00 0.00 0.00 16 1019.6
20221126205127 65 257 4.0 13.0 0.00 0.00 0.00 18 1019.6
20221126204626 65 263 2.0 13.0 0.00 0.00 0.00 18 1019.6
20221126203626 65 254 10.0 14.0 0.00 0.00 0.00 17 1019.9
20221126202625 65 238 8.0 13.0 0.00 0.00 0.00 16 1020.1
20221126202125 66 267 8.0 13.0 0.00 0.00 0.00 17 1020.4
20221126201131 65 259 12.0 15.0 0.00 0.00 0.00 20 1020.3
20221126200630 64 234 3.0 12.0 0.00 0.00 0.00 19 1020.3
20221126200130 64 237 4.0 12.0 0.00 0.00 0.00 18 1020.4
20221126195630 65 275 4.0 12.0 0.00 0.00 0.00 18 1020.9
20221126195130 65 279 8.0 11.0 0.00 0.00 0.00 19 1020.9
20221126194629 65 261 4.0 10.0 0.00 0.00 0.00 17 1021.0
20221126194130 65 257 1.0 10.0 0.00 0.00 0.00 19 1021.1
20221126193629 65 242 2.0 12.0 0.00 0.00 0.00 19 1021.3
20221126193129 65 278 2.0 12.0 0.00 0.00 0.00 19 1021.5
20221126191629 64 240 2.0 11.0 0.00 0.00 0.00 18 1021.3
20221126191128 64 236 3.0 14.0 0.00 0.00 0.00 18 1021.3
20221126190628 64 105 1.0 14.0 0.00 0.00 0.00 18 1021.5
20221126190128 65 277 4.0 11.0 0.00 0.00 0.00 16 1021.7
20221126185628 65 248 7.0 9.0 0.00 0.00 0.00 17 1021.9
20221126185128 65 274 6.0 9.0 0.00 0.00 0.00 19 1021.9
20221126184628 65 275 6.0 7.0 0.00 0.00 0.00 18 1021.9
20221126184128 65 239 3.0 7.0 0.00 0.00 0.00 19 1022.0
20221126183627 64 286 2.0 7.0 0.00 0.00 0.00 19 1021.9
20221126183127 64 298 4.0 7.0 0.00 0.00 0.00 21 1022.0
20221126182628 63 259 1.0 11.0 0.00 0.00 0.00 19 1022.0
20221126182127 63 279 6.0 11.0 0.00 0.00 0.00 20 1022.2
20221126181627 63 275 11.0 11.0 0.00 0.00 0.00 19 1022.2
20221126181127 63 260 3.0 9.0 0.00 0.00 0.00 20 1022.2
20221126180627 63 266 4.0 8.0 0.00 0.00 0.00 20 1022.2
20221126180127 63 264 4.0 9.0 0.00 0.00 0.00 19 1022.2
20221126175626 62 263 2.0 9.0 0.00 0.00 0.00 20 1022.2
20221126175126 62 271 2.0 8.0 0.00 0.00 0.00 19 1022.1
20221126174626 62 259 2.0 8.0 0.00 0.00 0.00 20 1022.1
20221126174128 62 273 4.0 8.0 0.00 0.00 0.00 19 1022.1
20221126173626 62 265 4.0 10.0 0.00 0.00 0.00 21 1022.3
20221126173126 62 272 4.0 10.0 0.00 0.00 0.00 20 1022.2
20221126172627 61 255 4.0 11.0 0.00 0.00 0.00 21 1022.1
20221126172126 61 273 1.0 11.0 0.00 0.00 0.00 21 1022.1
20221126171627 60 245 5.0 10.0 0.00 0.00 0.00 21 1022.3
20221126171126 60 221 4.0 9.0 0.00 0.00 0.00 22 1022.3
20221126170625 60 265 3.0 8.0 0.00 0.00 0.00 21 1022.2
20221126170126 59 281 2.0 5.0 0.00 0.00 0.00 24 1022.1
20221126165624 57 298 0.0 8.0 0.00 0.00 0.00 27 1022.0
20221126165126 55 297 1.0 8.0 0.00 0.00 0.00 26 1021.6
20221126164125 49 106 0.0 4.0 0.00 0.00 0.00 38 1021.1
20221126163626 47 106 0.0 4.0 0.00 0.00 0.00 41 1020.7
20221126163126 44 88 0.0 2.0 0.00 0.00 0.00 42 1020.1
20221126162625 42 86 1.0 2.0 0.00 0.00 0.00 44 1019.9
20221126162125 41 86 0.0 0.0 0.00 0.00 0.00 51 1019.8
20221126160623 40 86 0.0 4.0 0.00 0.00 0.00 51 1019.4
20221126160123 40 86 1.0 5.0 0.00 0.00 0.00 51 1019.6
20221126155123 39 83 4.0 7.0 0.00 0.00 0.00 51 1019.4
20221126154623 39 82 4.0 7.0 0.00 0.00 0.00 50 1019.5
20221126154123 39 85 3.0 7.0 0.00 0.00 0.00 50 1019.5
20221126153623 38 84 4.0 7.0 0.00 0.00 0.00 50 1019.4
20221126152622 37 92 7.0 8.0 0.00 0.00 0.00 50 1019.2
20221126151622 37 91 3.0 7.0 0.00 0.00 0.00 49 1019.0
20221126151122 37 94 3.0 7.0 0.00 0.00 0.00 49 1019.0
20221126150622 37 89 5.0 7.0 0.00 0.00 0.00 49 1018.7
20221126150122 37 92 6.0 8.0 0.00 0.00 0.00 49 1018.9
20221126145621 37 86 5.0 8.0 0.00 0.00 0.00 49 1018.9
20221126145121 36 90 6.0 7.0 0.00 0.00 0.00 49 1018.6
20221126144621 36 106 3.0 8.0 0.00 0.00 0.00 49 1018.6
20221126144121 36 87 5.0 8.0 0.00 0.00 0.00 49 1018.6
20221126143121 36 104 6.0 9.0 0.00 0.00 0.00 48 1018.6
20221126142121 36 95 7.0 8.0 0.00 0.00 0.00 48 1018.7
20221126141134 36 96 6.0 8.0 0.00 0.00 0.00 48 1018.6
20221126140634 37 90 4.0 9.0 0.00 0.00 0.00 48 1018.7
20221126140134 37 98 4.0 9.0 0.00 0.00 0.00 47 1018.7
20221126135633 37 94 2.0 9.0 0.00 0.00 0.00 47 1018.7
20221126135133 37 87 4.0 9.0 0.00 0.00 0.00 46 1018.7
20221126134633 37 85 7.0 8.0 0.00 0.00 0.00 47 1018.7
20221126134133 37 86 4.0 8.0 0.00 0.00 0.00 47 1018.7
20221126133132 36 95 4.0 8.0 0.00 0.00 0.00 48 1018.5
20221126132632 37 94 4.0 9.0 0.00 0.00 0.00 47 1018.4
20221126132132 37 94 7.0 9.0 0.00 0.00 0.00 47 1018.4
20221126131631 37 96 6.0 8.0 0.00 0.00 0.00 47 1018.5
20221126130632 37 92 6.0 8.0 0.00 0.00 0.00 47 1018.5
20221126130132 37 92 6.0 7.0 0.00 0.00 0.00 46 1019.5
20221126124631 38 91 6.0 7.0 0.00 0.00 0.00 45 1019.8
20221126124131 38 85 5.0 8.0 0.00 0.00 0.00 44 1019.7
20221126123631 39 91 4.0 8.0 0.00 0.00 0.00 44 1019.6
20221126122630 39 90 4.0 9.0 0.00 0.00 0.00 43 1019.6
20221126122130 39 90 6.0 9.0 0.00 0.00 0.00 43 1019.6
20221126121630 39 99 7.0 9.0 0.00 0.00 0.00 43 1019.6
20221126121130 39 101 7.0 9.0 0.00 0.00 0.00 43 1019.6
20221126120630 39 90 7.0 9.0 0.00 0.00 0.00 43 1019.6
20221126120129 39 90 7.0 9.0 0.00 0.00 0.00 43 1020.7
20221126115630 39 111 7.0 9.0 0.00 0.00 0.00 43 1020.5
20221126115130 39 77 4.0 9.0 0.00 0.00 0.00 43 1020.4
20221126114629 38 86 7.0 9.0 0.00 0.00 0.00 44 1020.2
20221126114129 38 92 6.0 9.0 0.00 0.00 0.00 44 1020.2
20221126113629 38 92 6.0 9.0 0.00 0.00 0.00 44 1020.3
20221126113129 38 80 8.0 9.0 0.00 0.00 0.00 45 1020.4
20221126112629 38 89 7.0 9.0 0.00 0.00 0.00 44 1020.5
20221126112128 38 94 6.0 8.0 0.00 0.00 0.00 44 1020.6
20221126111628 38 92 6.0 9.0 0.00 0.00 0.00 43 1020.5
20221126111128 38 96 6.0 9.0 0.00 0.00 0.00 43 1020.6
20221126110628 38 106 6.0 9.0 0.00 0.00 0.00 43 1020.6
20221126110128 38 85 5.0 9.0 0.00 0.00 0.00 43 1020.8
20221126105128 39 93 6.0 8.0 0.00 0.00 0.00 41 1021.1
20221126104629 39 95 3.0 7.0 0.00 0.00 0.00 41 1021.1
20221126104128 39 88 4.0 9.0 0.00 0.00 0.00 41 1021.1
20221126103627 39 87 5.0 10.0 0.00 0.00 0.00 41 1021.2
20221126103128 39 94 7.0 10.0 0.00 0.00 0.00 41 1021.2
20221126102627 39 92 7.0 10.0 0.00 0.00 0.00 40 1021.2
20221126102127 39 98 6.0 10.0 0.00 0.00 0.00 40 1021.1
20221126101627 39 118 4.0 9.0 0.00 0.00 0.00 40 1021.1
20221126101128 38 105 4.0 9.0 0.00 0.00 0.00 41 1020.9
20221126100626 38 98 6.0 9.0 0.00 0.00 0.00 41 1020.9
20221126100127 38 82 5.0 9.0 0.00 0.00 0.00 41 1021.5
20221126095626 39 88 8.0 9.0 0.00 0.00 0.00 41 1021.5
20221126095127 38 86 4.0 9.0 0.00 0.00 0.00 41 1021.5
20221126094627 38 89 8.0 9.0 0.00 0.00 0.00 41 1021.5
20221126094127 38 84 7.0 8.0 0.00 0.00 0.00 42 1021.6
20221126093126 38 97 4.0 9.0 0.00 0.00 0.00 41 1021.4
20221126092626 38 97 7.0 9.0 0.00 0.00 0.00 41 1021.4
20221126091626 38 96 9.0 9.0 0.00 0.00 0.00 42 1021.4
20221126091126 38 84 7.0 9.0 0.00 0.00 0.00 42 1021.5
20221126090624 38 90 6.0 9.0 0.00 0.00 0.00 42 1021.5
20221126090125 38 86 4.0 8.0 0.00 0.00 0.00 43 1021.6
20221126085624 38 97 4.0 8.0 0.00 0.00 0.00 43 1021.6
20221126085125 38 85 4.0 9.0 0.00 0.00 0.00 43 1021.7
20221126084124 37 93 4.0 8.0 0.00 0.00 0.00 44 1021.7
20221126083124 38 78 5.0 7.0 0.00 0.00 0.00 43 1021.7
20221126082624 38 88 4.0 9.0 0.00 0.00 0.00 43 1021.7
20221126082123 38 96 4.0 9.0 0.00 0.00 0.00 42 1021.8
20221126081134 39 101 4.0 9.0 0.00 0.00 0.00 42 1022.1
20221126080634 39 97 4.0 9.0 0.00 0.00 0.00 41 1022.2
20221126075634 39 107 4.0 9.0 0.00 0.00 0.00 40 1022.0
20221126075134 39 98 6.0 9.0 0.00 0.00 0.00 40 1022.1
20221126074633 39 116 7.0 10.0 0.00 0.00 0.00 40 1022.1
20221126074133 40 101 7.0 10.0 0.00 0.00 0.00 40 1022.4
20221126073633 40 92 4.0 9.0 0.00 0.00 0.00 39 1022.3
20221126073133 40 92 8.0 9.0 0.00 0.00 0.00 39 1022.4
20221126072132 40 102 4.0 10.0 0.00 0.00 0.00 40 1022.4
20221126071632 39 91 7.0 9.0 0.00 0.00 0.00 40 1022.4
20221126070632 39 99 7.0 9.0 0.00 0.00 0.00 41 1022.5
20221126070132 40 97 3.0 9.0 0.00 0.00 0.00 40 1022.7
20221126065632 40 94 7.0 9.0 0.00 0.00 0.00 41 1022.8
20221126065132 40 93 4.0 7.0 0.00 0.00 0.00 41 1022.8
20221126064631 39 98 6.0 7.0 0.00 0.00 0.00 41 1022.5
20221126064131 39 99 3.0 8.0 0.00 0.00 0.00 42 1022.6
20221126063631 39 98 3.0 8.0 0.00 0.00 0.00 42 1022.6
20221126062631 38 108 3.0 8.0 0.00 0.00 0.00 44 1022.6
20221126062131 38 112 6.0 7.0 0.00 0.00 0.00 44 1022.7
20221126061630 38 117 4.0 7.0 0.00 0.00 0.00 44 1022.9
20221126061132 38 103 4.0 7.0 0.00 0.00 0.00 44 1023.0
20221126060630 38 103 7.0 8.0 0.00 0.00 0.00 44 1022.9
20221126055630 38 103 7.0 8.0 0.00 0.00 0.00 45 1022.7
20221126054630 38 110 6.0 8.0 0.00 0.00 0.00 45 1022.9
20221126054130 38 107 6.0 8.0 0.00 0.00 0.00 45 1022.8
20221126053630 38 98 7.0 8.0 0.00 0.00 0.00 44 1022.8
20221126053129 39 102 4.0 8.0 0.00 0.00 0.00 44 1023.0
20221126052629 39 94 3.0 8.0 0.00 0.00 0.00 44 1023.2
20221126052129 39 86 5.0 8.0 0.00 0.00 0.00 44 1023.2
20221126051629 39 93 6.0 8.0 0.00 0.00 0.00 44 1023.3
20221126051129 39 96 6.0 9.0 0.00 0.00 0.00 44 1023.2
20221126050629 39 109 4.0 9.0 0.00 0.00 0.00 43 1023.2
20221126050129 40 109 3.0 8.0 0.00 0.00 0.00 43 1022.9
20221126045128 40 107 3.0 9.0 0.00 0.00 0.00 42 1022.9
20221126044628 40 105 6.0 8.0 0.00 0.00 0.00 42 1022.8
20221126044128 40 101 4.0 8.0 0.00 0.00 0.00 42 1022.8
20221126043628 40 99 4.0 8.0 0.00 0.00 0.00 41 1022.8
20221126043127 40 102 3.0 9.0 0.00 0.00 0.00 42 1022.8
20221126041627 40 92 6.0 8.0 0.00 0.00 0.00 42 1022.7
20221126041127 40 86 5.0 8.0 0.00 0.00 0.00 43 1022.7
20221126040627 40 82 5.0 9.0 0.00 0.00 0.00 42 1022.7
20221126035627 40 92 6.0 8.0 0.00 0.00 0.00 41 1021.9
20221126035127 40 96 3.0 8.0 0.00 0.00 0.00 41 1021.8
20221126034627 40 112 6.0 7.0 0.00 0.00 0.00 40 1021.8
20221126033627 40 103 4.0 8.0 0.00 0.00 0.00 40 1021.6
20221126033127 40 103 6.0 8.0 0.00 0.00 0.00 41 1021.5
20221126032127 41 94 6.0 9.0 0.00 0.00 0.00 41 1021.9
20221126031626 41 97 4.0 7.0 0.00 0.00 0.00 41 1021.9
20221126031126 41 103 3.0 7.0 0.00 0.00 0.00 40 1021.8
20221126030125 41 102 3.0 7.0 0.00 0.00 0.00 41 1021.5
20221126025626 41 92 4.0 7.0 0.00 0.00 0.00 42 1021.5
20221126025127 42 100 4.0 7.0 0.00 0.00 0.00 42 1021.4
20221126024126 42 103 7.0 8.0 0.00 0.00 0.00 42 1021.4
20221126023625 42 104 4.0 7.0 0.00 0.00 0.00 41 1021.4
20221126023126 42 108 3.0 9.0 0.00 0.00 0.00 41 1021.3
20221126022626 42 121 4.0 9.0 0.00 0.00 0.00 39 1021.3
20221126022126 42 107 7.0 9.0 0.00 0.00 0.00 38 1021.4
20221126021135 42 98 3.0 8.0 0.00 0.00 0.00 37 1021.3
20221126020635 43 106 2.0 7.0 0.00 0.00 0.00 36 1021.6
20221126020135 43 101 3.0 9.0 0.00 0.00 0.00 36 1021.3
20221126015636 43 96 3.0 9.0 0.00 0.00 0.00 36 1021.3
20221126015135 43 90 7.0 8.0 0.00 0.00 0.00 37 1021.3
20221126014634 44 95 3.0 8.0 0.00 0.00 0.00 38 1021.6
20221126014134 45 84 4.0 8.0 0.00 0.00 0.00 38 1021.5
20221126013634 45 86 7.0 7.0 0.00 0.00 0.00 38 1021.5
20221126012634 46 104 4.0 8.0 0.00 0.00 0.00 37 1021.5
20221126012133 47 104 4.0 8.0 0.00 0.00 0.00 35 1021.5
20221126011133 49 101 3.0 7.0 0.00 0.00 0.00 33 1021.6
20221126010634 50 101 4.0 7.0 0.00 0.00 0.00 33 1021.9
20221126010133 51 103 6.0 7.0 0.00 0.00 0.00 32 1022.1
20221126005133 53 118 2.0 5.0 0.00 0.00 0.00 29 1022.3
20221126004633 54 120 1.0 4.0 0.00 0.00 0.00 26 1022.3
20221126004132 55 120 3.0 3.0 0.00 0.00 0.00 26 1022.4
20221126003632 56 120 1.0 2.0 0.00 0.00 0.00 24 1022.3
20221126002633 57 121 0.0 8.0 0.00 0.00 0.00 21 1022.3
20221126001631 58 111 2.0 9.0 0.00 0.00 0.00 20 1022.2
20221126001132 59 123 3.0 5.0 0.00 0.00 0.00 21 1022.5
20221126000631 59 124 4.0 7.0 0.00 0.00 0.00 25 1022.7
20221126000131 60 123 0.0 7.0 0.00 0.00 0.00 22 1022.6
20221125235631 60 97 7.0 8.0 0.00 0.00 0.00 20 1022.7
20221125235131 60 120 5.0 15.0 0.00 0.00 0.00 20 1022.7
20221125234632 60 132 8.0 15.0 0.00 0.00 0.00 19 1022.5
20221125234130 61 138 9.0 14.0 0.00 0.00 0.00 18 1022.8
20221125233630 61 109 11.0 14.0 0.00 0.00 0.00 18 1023.0
20221125232630 61 118 9.0 14.0 0.00 0.00 0.00 17 1023.0
20221125232130 61 98 8.0 15.0 0.00 0.00 0.00 17 1023.1
20221125231630 61 114 11.0 18.0 0.00 0.00 0.00 17 1023.0
20221125231129 61 133 8.0 18.0 0.00 0.00 0.00 18 1023.0
20221125230629 62 127 12.0 15.0 0.00 0.00 0.00 18 1023.0
20221125230129 62 132 10.0 15.0 0.00 0.00 0.00 17 1023.1
20221125225629 62 142 9.0 16.0 0.00 0.00 0.00 15 1023.0
20221125225129 62 108 6.0 16.0 0.00 0.00 0.00 16 1023.1
20221125224629 62 125 12.0 16.0 0.00 0.00 0.00 15 1023.1
20221125223628 63 128 5.0 13.0 0.00 0.00 0.00 17 1023.3
20221125221128 63 111 9.0 16.0 0.00 0.00 0.00 15 1023.1
20221125220127 64 95 16.0 16.0 0.00 0.00 0.00 16 1023.4
20221125215127 64 98 3.0 18.0 0.00 0.00 0.00 17 1023.5